Observation data for Haskell on 07/11/2018      Previous  Date       Current Mesonet Observations  Soil Data  Daily Summary Page  Observations in Plain Language
KHA1 110500Z 13006KT 25/19 A3007 RMK A01 T02530186  RH  070%=      5-min Rain = 0
KHA1 110505Z 13006KT 25/19 A3007 RMK A01 T02520187  RH  071%=      5-min Rain = 0
KHA1 110510Z 13006KT 25/19 A3007 RMK A01 T02520186  RH  071%=      5-min Rain = 0
KHA1 110515Z 13007KT 25/19 A3007 RMK A01 T02520186  RH  071%=      5-min Rain = 0
KHA1 110520Z 13006KT 25/19 A3007 RMK A01 T02530185  RH  070%=      5-min Rain = 0
KHA1 110525Z 13006KT 25/19 A3007 RMK A01 T02530185  RH  070%=      5-min Rain = 0
KHA1 110530Z 14007KT 25/19 A3007 RMK A01 T02520185  RH  070%=      5-min Rain = 0
KHA1 110535Z 14006KT 25/19 A3007 RMK A01 T02520185  RH  070%=      5-min Rain = 0
KHA1 110540Z 14007KT 25/19 A3006 RMK A01 T02530185  RH  070%=      5-min Rain = 0
KHA1 110545Z 14006KT 25/19 A3006 RMK A01 T02530185  RH  070%=      5-min Rain = 0
KHA1 110550Z 14006KT 25/19 A3006 RMK A01 T02530185  RH  070%=      5-min Rain = 0
KHA1 110555Z 14006KT 25/19 A3006 RMK A01 T02530185  RH  070%=      5-min Rain = 0
KHA1 110600Z 14006KT 25/19 A3006 RMK A01 T02520185  RH  070%=      5-min Rain = 0
KHA1 110605Z 14006KT 25/19 A3006 RMK A01 T02520185  RH  070%=      5-min Rain = 0
KHA1 110610Z 14006KT 25/18 A3006 RMK A01 T02520184  RH  070%=      5-min Rain = 0
KHA1 110615Z 13006KT 25/19 A3006 RMK A01 T02520185  RH  070%=      5-min Rain = 0
KHA1 110620Z 13006KT 25/19 A3006 RMK A01 T02510185  RH  071%=      5-min Rain = 0
KHA1 110625Z 12005KT 25/19 A3006 RMK A01 T02490185  RH  071%=      5-min Rain = 0
KHA1 110630Z 12005KT 25/19 A3006 RMK A01 T02480185  RH  072%=      5-min Rain = 0
KHA1 110635Z 12006KT 25/19 A3006 RMK A01 T02480185  RH  072%=      5-min Rain = 0
KHA1 110640Z 12006KT 25/19 A3005 RMK A01 T02470186  RH  073%=      5-min Rain = 0
KHA1 110645Z 11005KT 25/19 A3005 RMK A01 T02460186  RH  073%=      5-min Rain = 0
KHA1 110650Z 12004KT 25/19 A3005 RMK A01 T02450185  RH  073%=      5-min Rain = 0
KHA1 110655Z 12004KT 24/19 A3005 RMK A01 T02440185  RH  074%=      5-min Rain = 0
KHA1 110700Z 12005KT 24/19 A3005 RMK A01 T02440185  RH  074%=      5-min Rain = 0
KHA1 110705Z 13004KT 24/19 A3005 RMK A01 T02430185  RH  074%=      5-min Rain = 0
KHA1 110710Z 13004KT 24/19 A3005 RMK A01 T02430185  RH  074%=      5-min Rain = 0
KHA1 110715Z 13004KT 24/19 A3005 RMK A01 T02430185  RH  074%=      5-min Rain = 0
KHA1 110720Z 13004KT 24/19 A3005 RMK A01 T02430185  RH  074%=      5-min Rain = 0
KHA1 110725Z 14004KT 24/19 A3005 RMK A01 T02430185  RH  074%=      5-min Rain = 0
KHA1 110730Z 14004KT 24/19 A3005 RMK A01 T02430185  RH  074%=      5-min Rain = 0
KHA1 110735Z 14004KT 24/19 A3005 RMK A01 T02420185  RH  074%=      5-min Rain = 0
KHA1 110740Z 14004KT 24/19 A3005 RMK A01 T02420185  RH  075%=      5-min Rain = 0
KHA1 110745Z 14004KT 24/19 A3005 RMK A01 T02410185  RH  075%=      5-min Rain = 0
KHA1 110750Z 15004KT 24/19 A3005 RMK A01 T02410185  RH  075%=      5-min Rain = 0
KHA1 110755Z 15004KT 24/19 A3005 RMK A01 T02410185  RH  075%=      5-min Rain = 0
KHA1 110800Z 16004KT 24/18 A3005 RMK A01 T02430184  RH  074%=      5-min Rain = 0
KHA1 110805Z 16005KT 24/18 A3005 RMK A01 T02430184  RH  073%=      5-min Rain = 0
KHA1 110810Z 15005KT 24/18 A3005 RMK A01 T02430183  RH  073%=      5-min Rain = 0
KHA1 110815Z 16005KT 24/18 A3005 RMK A01 T02430183  RH  073%=      5-min Rain = 0
KHA1 110820Z 16004KT 24/18 A3005 RMK A01 T02420183  RH  074%=      5-min Rain = 0
KHA1 110825Z 17005KT 24/18 A3005 RMK A01 T02420183  RH  074%=      5-min Rain = 0
KHA1 110830Z 17004KT 24/18 A3005 RMK A01 T02410183  RH  074%=      5-min Rain = 0
KHA1 110835Z 17005KT 24/18 A3005 RMK A01 T02400183  RH  074%=      5-min Rain = 0
KHA1 110840Z 18005KT 24/18 A3005 RMK A01 T02400182  RH  074%=      5-min Rain = 0
KHA1 110845Z 18005KT 24/18 A3004 RMK A01 T02400183  RH  074%=      5-min Rain = 0
KHA1 110850Z 19006KT 24/18 A3004 RMK A01 T02390182  RH  075%=      5-min Rain = 0
KHA1 110855Z 19006KT 24/18 A3004 RMK A01 T02390182  RH  075%=      5-min Rain = 0
KHA1 110900Z 19007KT 24/18 A3004 RMK A01 T02380183  RH  075%=      5-min Rain = 0
KHA1 110905Z 20007KT 24/18 A3004 RMK A01 T02360183  RH  076%=      5-min Rain = 0
KHA1 110910Z 20007KT 24/18 A3004 RMK A01 T02350184  RH  077%=      5-min Rain = 0
KHA1 110915Z 20007KT 24/18 A3004 RMK A01 T02350184  RH  077%=      5-min Rain = 0
KHA1 110920Z 20007KT 23/18 A3004 RMK A01 T02340184  RH  077%=      5-min Rain = 0
KHA1 110925Z 20007KT 23/18 A3004 RMK A01 T02340184  RH  077%=      5-min Rain = 0
KHA1 110930Z 20007KT 24/18 A3004 RMK A01 T02350183  RH  077%=      5-min Rain = 0
KHA1 110935Z 20008KT 24/18 A3004 RMK A01 T02350183  RH  076%=      5-min Rain = 0
KHA1 110940Z 20008KT 24/18 A3004 RMK A01 T02350183  RH  076%=      5-min Rain = 0
KHA1 110945Z 20008KT 24/18 A3004 RMK A01 T02350183  RH  077%=      5-min Rain = 0
KHA1 110950Z 20008KT 23/18 A3004 RMK A01 T02340183  RH  077%=      5-min Rain = 0
KHA1 110955Z 20008KT 23/18 A3004 RMK A01 T02330184  RH  078%=      5-min Rain = 0
KHA1 111000Z 20008KT 23/18 A3004 RMK A01 T02320184  RH  079%=      5-min Rain = 0
KHA1 111005Z 20008KT 23/19 A3004 RMK A01 T02310185  RH  080%=      5-min Rain = 0
KHA1 111010Z 20008KT 23/19 A3004 RMK A01 T02300185  RH  080%=      5-min Rain = 0
KHA1 111015Z 20007KT 23/19 A3004 RMK A01 T02300186  RH  081%=      5-min Rain = 0
KHA1 111020Z 21007KT 23/19 A3004 RMK A01 T02290186  RH  081%=      5-min Rain = 0
KHA1 111025Z 21006KT 23/19 A3004 RMK A01 T02290186  RH  081%=      5-min Rain = 0
KHA1 111030Z 20007KT 23/19 A3005 RMK A01 T02290187  RH  082%=      5-min Rain = 0
KHA1 111035Z 20007KT 23/19 A3005 RMK A01 T02280186  RH  081%=      5-min Rain = 0
KHA1 111040Z 20007KT 23/19 A3004 RMK A01 T02280186  RH  081%=      5-min Rain = 0
KHA1 111045Z 20007KT 23/19 A3004 RMK A01 T02280186  RH  082%=      5-min Rain = 0
KHA1 111050Z 20007KT 23/19 A3005 RMK A01 T02270186  RH  082%=      5-min Rain = 0
KHA1 111055Z 20007KT 23/19 A3005 RMK A01 T02270186  RH  082%=      5-min Rain = 0
KHA1 111100Z 20008KT 23/19 A3005 RMK A01 T02260186  RH  082%=      5-min Rain = 0
KHA1 111105Z 20008KT 23/19 A3005 RMK A01 T02270186  RH  082%=      5-min Rain = 0
KHA1 111110Z 20008KT 23/19 A3005 RMK A01 T02270186  RH  082%=      5-min Rain = 0
KHA1 111115Z 20008KT 23/19 A3005 RMK A01 T02270185  RH  082%=      5-min Rain = 0
KHA1 111120Z 20008KT 23/19 A3005 RMK A01 T02260185  RH  082%=      5-min Rain = 0
KHA1 111125Z 21008KT 23/19 A3005 RMK A01 T02260185  RH  082%=      5-min Rain = 0
KHA1 111130Z 21008KT 23/18 A3005 RMK A01 T02260184  RH  081%=      5-min Rain = 0
KHA1 111135Z 21008KT 23/18 A3005 RMK A01 T02260184  RH  081%=      5-min Rain = 0
KHA1 111140Z 20008KT 23/18 A3005 RMK A01 T02260184  RH  082%=      5-min Rain = 0
KHA1 111145Z 20008KT 23/18 A3005 RMK A01 T02250184  RH  082%=      5-min Rain = 0
KHA1 111150Z 21007KT 22/18 A3006 RMK A01 T02240184  RH  082%=      5-min Rain = 0
KHA1 111155Z 21007KT 22/18 A3006 RMK A01 T02240184  RH  083%=      5-min Rain = 0
KHA1 111200Z 21007KT 22/18 A3006 RMK A01 T02240184  RH  082%=      5-min Rain = 0
KHA1 111205Z 21006KT 23/18 A3006 RMK A01 T02250184  RH  082%=      5-min Rain = 0
KHA1 111210Z 21006KT 23/18 A3007 RMK A01 T02250184  RH  082%=      5-min Rain = 0
KHA1 111215Z 21005KT 23/18 A3007 RMK A01 T02260184  RH  081%=      5-min Rain = 0
KHA1 111220Z 21005KT 23/18 A3007 RMK A01 T02270184  RH  081%=      5-min Rain = 0
KHA1 111225Z 21005KT 23/18 A3007 RMK A01 T02280184  RH  081%=      5-min Rain = 0
KHA1 111230Z 21004KT 23/18 A3007 RMK A01 T02300184  RH  080%=      5-min Rain = 0
KHA1 111235Z 22004KT 23/18 A3007 RMK A01 T02320184  RH  079%=      5-min Rain = 0
KHA1 111240Z 22004KT 23/18 A3008 RMK A01 T02340184  RH  078%=      5-min Rain = 0
KHA1 111245Z 22004KT 24/18 A3008 RMK A01 T02350184  RH  077%=      5-min Rain = 0
KHA1 111250Z 22005KT 24/18 A3008 RMK A01 T02360184  RH  077%=      5-min Rain = 0
KHA1 111255Z 21005KT 24/18 A3008 RMK A01 T02360184  RH  077%=      5-min Rain = 0
KHA1 111300Z 21006KT 24/18 A3008 RMK A01 T02380183  RH  075%=      5-min Rain = 0
KHA1 111305Z 20006KT 24/18 A3008 RMK A01 T02400181  RH  073%=      5-min Rain = 0
KHA1 111310Z 20007KT 24/18 A3008 RMK A01 T02430180  RH  072%=      5-min Rain = 0
KHA1 111315Z 20006KT 25/18 A3008 RMK A01 T02450180  RH  071%=      5-min Rain = 0
KHA1 111320Z 20006KT 25/18 A3008 RMK A01 T02470178  RH  069%=      5-min Rain = 0
KHA1 111325Z 20006KT 25/18 A3008 RMK A01 T02480178  RH  069%=      5-min Rain = 0
KHA1 111330Z 21006KT 25/18 A3009 RMK A01 T02510178  RH  068%=      5-min Rain = 0
KHA1 111335Z 21007KT 25/18 A3009 RMK A01 T02540177  RH  066%=      5-min Rain = 0
KHA1 111340Z 20007KT 26/18 A3009 RMK A01 T02550177  RH  065%=      5-min Rain = 0
KHA1 111345Z 22007KT 26/18 A3009 RMK A01 T02580175  RH  064%=      5-min Rain = 0
KHA1 111350Z 21008KT 26/17 A3009 RMK A01 T02610173  RH  061%=      5-min Rain = 0
KHA1 111355Z 21007KT 27/17 A3009 RMK A01 T02650173  RH  060%=      5-min Rain = 0
KHA1 111400Z 21007KT 27/17 A3009 RMK A01 T02670172  RH  059%=      5-min Rain = 0
KHA1 111405Z 22008KT 27/17 A3009 RMK A01 T02700170  RH  057%=      5-min Rain = 0
KHA1 111410Z 21009KT 27/17 A3009 RMK A01 T02700168  RH  056%=      5-min Rain = 0
KHA1 111415Z 21009KT 27/17 A3009 RMK A01 T02720169  RH  056%=      5-min Rain = 0
KHA1 111420Z 21008KT 27/17 A3009 RMK A01 T02740170  RH  056%=      5-min Rain = 0
KHA1 111425Z 21011KT 28/17 A3009 RMK A01 T02760167  RH  054%=      5-min Rain = 0
KHA1 111430Z 21010KT 28/17 A3009 RMK A01 T02760167  RH  054%=      5-min Rain = 0
KHA1 111435Z 22010KT 28/17 A3009 RMK A01 T02790166  RH  053%=      5-min Rain = 0
KHA1 111440Z 22011KT 28/17 A3009 RMK A01 T02790165  RH  052%=      5-min Rain = 0
KHA1 111445Z 22010KT 28/17 A3009 RMK A01 T02810168  RH  053%=      5-min Rain = 0
KHA1 111450Z 21011KT 28/17 A3009 RMK A01 T02830167  RH  052%=      5-min Rain = 0
KHA1 111455Z 21011KT 28/17 A3009 RMK A01 T02830167  RH  052%=      5-min Rain = 0
KHA1 111500Z 21011KT 28/17 A3009 RMK A01 T02830167  RH  052%=      5-min Rain = 0
KHA1 111505Z 22009G14KT 29/17 A3009 RMK A01 T02870169  RH  051%=      5-min Rain = 0
KHA1 111510Z 21010KT 29/17 A3009 RMK A01 T02900169  RH  050%=      5-min Rain = 0
KHA1 111515Z 21010KT 29/17 A3009 RMK A01 T02920167  RH  049%=      5-min Rain = 0
KHA1 111520Z 21009KT 30/17 A3009 RMK A01 T02950166  RH  048%=      5-min Rain = 0
KHA1 111525Z 22010KT 30/16 A3009 RMK A01 T02990164  RH  046%=      5-min Rain = 0
KHA1 111530Z 22012KT 30/16 A3009 RMK A01 T03030162  RH  045%=      5-min Rain = 0
KHA1 111535Z 23011KT 30/16 A3009 RMK A01 T03030161  RH  044%=      5-min Rain = 0
KHA1 111540Z 22011KT 31/16 A3009 RMK A01 T03060163  RH  044%=      5-min Rain = 0
KHA1 111545Z 22012KT 31/16 A3008 RMK A01 T03110161  RH  042%=      5-min Rain = 0
KHA1 111550Z 22011KT 31/16 A3008 RMK A01 T03100162  RH  043%=      5-min Rain = 0
KHA1 111555Z 21011KT 31/16 A3008 RMK A01 T03110162  RH  043%=      5-min Rain = 0
KHA1 111600Z 23009KT 31/16 A3008 RMK A01 T03140162  RH  042%=      5-min Rain = 0
KHA1 111605Z 23010KT 31/16 A3008 RMK A01 T03140160  RH  041%=      5-min Rain = 0
KHA1 111610Z 22010KT 32/16 A3008 RMK A01 T03160159  RH  041%=      5-min Rain = 0
KHA1 111615Z 22009KT 32/16 A3008 RMK A01 T03190157  RH  039%=      5-min Rain = 0
KHA1 111620Z 24009KT 32/16 A3008 RMK A01 T03190155  RH  039%=      5-min Rain = 0
KHA1 111625Z 21009KT 32/16 A3008 RMK A01 T03180158  RH  040%=      5-min Rain = 0
KHA1 111630Z 21009KT 32/15 A3008 RMK A01 T03230153  RH  037%=      5-min Rain = 0
KHA1 111635Z 23008KT 33/15 A3008 RMK A01 T03250149  RH  036%=      5-min Rain = 0
KHA1 111640Z 20010KT 33/16 A3008 RMK A01 T03260155  RH  037%=      5-min Rain = 0
KHA1 111645Z 21007KT 32/15 A3008 RMK A01 T03240149  RH  036%=      5-min Rain = 0
KHA1 111650Z 20007KT 33/15 A3008 RMK A01 T03260153  RH  037%=      5-min Rain = 0
KHA1 111655Z 21008KT 33/15 A3008 RMK A01 T03270154  RH  037%=      5-min Rain = 0
KHA1 111700Z 19006KT 33/16 A3007 RMK A01 T03270155  RH  037%=      5-min Rain = 0
KHA1 111705Z 20006KT 33/15 A3007 RMK A01 T03280153  RH  037%=      5-min Rain = 0
KHA1 111710Z 18007KT 33/15 A3007 RMK A01 T03310153  RH  036%=      5-min Rain = 0
KHA1 111715Z 19005G10KT 33/15 A3007 RMK A01 T03300146  RH  035%=      5-min Rain = 0
KHA1 111720Z 20006KT 33/15 A3007 RMK A01 T03330145  RH  034%=      5-min Rain = 0
KHA1 111725Z 15004KT 33/15 A3007 RMK A01 T03280151  RH  036%=      5-min Rain = 0
KHA1 111730Z 16006KT 33/15 A3007 RMK A01 T03290148  RH  035%=      5-min Rain = 0
KHA1 111735Z 16007KT 33/15 A3007 RMK A01 T03310147  RH  035%=      5-min Rain = 0
KHA1 111740Z 15004KT 33/15 A3007 RMK A01 T03320148  RH  035%=      5-min Rain = 0
KHA1 111745Z 18004G10KT 34/15 A3006 RMK A01 T03350147  RH  034%=      5-min Rain = 0
KHA1 111750Z 19006KT 34/13 A3006 RMK A01 T03390132  RH  030%=      5-min Rain = 0
KHA1 111755Z 20006G12KT 34/13 A3006 RMK A01 T03410126  RH  028%=      5-min Rain = 0
KHA1 111800Z 19008KT 34/12 A3006 RMK A01 T03430121  RH  027%=      5-min Rain = 0
KHA1 111805Z 19006G11KT 34/13 A3006 RMK A01 T03400125  RH  028%=      5-min Rain = 0
KHA1 111810Z 18008G13KT 34/12 A3006 RMK A01 T03400122  RH  028%=      5-min Rain = 0
KHA1 111815Z 17008KT 34/13 A3006 RMK A01 T03420131  RH  029%=      5-min Rain = 0
KHA1 111820Z 17008G14KT 34/13 A3005 RMK A01 T03420125  RH  028%=      5-min Rain = 0
KHA1 111825Z 17008KT 34/13 A3005 RMK A01 T03400131  RH  029%=      5-min Rain = 0
KHA1 111830Z 20007KT 35/13 A3005 RMK A01 T03450125  RH  028%=      5-min Rain = 0
KHA1 111835Z 16003G9KT 35/14 A3005 RMK A01 T03460135  RH  029%=      5-min Rain = 0
KHA1 111840Z 20008KT 35/13 A3005 RMK A01 T03460134  RH  029%=      5-min Rain = 0
KHA1 111845Z 21007KT 34/13 A3005 RMK A01 T03410130  RH  029%=      5-min Rain = 0
KHA1 111850Z 18009KT 35/13 A3005 RMK A01 T03460129  RH  028%=      5-min Rain = 0
KHA1 111855Z 18007G12KT 34/13 A3004 RMK A01 T03440127  RH  028%=      5-min Rain = 0
KHA1 111900Z 17007G12KT 34/12 A3004 RMK A01 T03390120  RH  027%=      5-min Rain = 0
KHA1 111905Z 14008KT 34/12 A3004 RMK A01 T03380124  RH  028%=      5-min Rain = 0
KHA1 111910Z 17006KT 34/13 A3004 RMK A01 T03440127  RH  028%=      5-min Rain = 0
KHA1 111915Z 17011G18KT 35/12 A3004 RMK A01 T03450119  RH  026%=      5-min Rain = 0
KHA1 111920Z 17009KT 35/12 A3004 RMK A01 T03480119  RH  026%=      5-min Rain = 0
KHA1 111925Z 19005G12KT 35/12 A3003 RMK A01 T03480117  RH  026%=      5-min Rain = 0
KHA1 111930Z 19010G15KT 35/12 A3003 RMK A01 T03510116  RH  025%=      5-min Rain = 0
KHA1 111935Z 19008KT 36/12 A3003 RMK A01 T03560119  RH  025%=      5-min Rain = 0
KHA1 111940Z 17008G17KT 35/13 A3003 RMK A01 T03490129  RH  028%=      5-min Rain = 0
KHA1 111945Z 16011G16KT 35/13 A3002 RMK A01 T03450129  RH  028%=      5-min Rain = 0
KHA1 111950Z 17006G11KT 35/13 A3002 RMK A01 T03480132  RH  028%=      5-min Rain = 0
KHA1 111955Z 19007G14KT 35/12 A3002 RMK A01 T03490123  RH  027%=      5-min Rain = 0
KHA1 112000Z 17007G12KT 35/13 A3001 RMK A01 T03480127  RH  027%=      5-min Rain = 0
KHA1 112005Z 16010KT 35/12 A3001 RMK A01 T03500124  RH  026%=      5-min Rain = 0
KHA1 112010Z 16009G16KT 35/13 A3001 RMK A01 T03490129  RH  028%=      5-min Rain = 0
KHA1 112015Z 17007KT 34/12 A3001 RMK A01 T03440124  RH  028%=      5-min Rain = 0
KHA1 112020Z 20012KT 36/11 A30 RMK A01 T03560109  RH  023%=      5-min Rain = 0
KHA1 112025Z 18012G18KT 36/11 A30 RMK A01 T03590107  RH  023%=      5-min Rain = 0
KHA1 112030Z 18010G15KT 36/12 A30 RMK A01 T03580118  RH  024%=      5-min Rain = 0
KHA1 112035Z 18011KT 36/11 A30 RMK A01 T03570114  RH  024%=      5-min Rain = 0
KHA1 112040Z 19007KT 36/11 A2999 RMK A01 T03610112  RH  023%=      5-min Rain = 0
KHA1 112045Z 18009KT 36/12 A2999 RMK A01 T03620116  RH  024%=      5-min Rain = 0
KHA1 112050Z 19008G15KT 36/12 A2999 RMK A01 T03640118  RH  024%=      5-min Rain = 0
KHA1 112055Z 19010G15KT 37/11 A2999 RMK A01 T03650112  RH  023%=      5-min Rain = 0
KHA1 112100Z 16009G15KT 36/12 A2999 RMK A01 T03590116  RH  024%=      5-min Rain = 0
KHA1 112105Z 19011G16KT 36/11 A2998 RMK A01 T03630112  RH  023%=      5-min Rain = 0
KHA1 112110Z 17011G16KT 36/11 A2998 RMK A01 T03590113  RH  024%=      5-min Rain = 0
KHA1 112115Z 18009KT 36/11 A2998 RMK A01 T03580112  RH  023%=      5-min Rain = 0
KHA1 112120Z 19009G15KT 36/11 A2998 RMK A01 T03620111  RH  023%=      5-min Rain = 0
KHA1 112125Z 18009KT 36/11 A2998 RMK A01 T03640112  RH  023%=      5-min Rain = 0
KHA1 112130Z 18009KT 36/12 A2997 RMK A01 T03600116  RH  024%=      5-min Rain = 0
KHA1 112135Z 16006G13KT 36/12 A2997 RMK A01 T03580122  RH  025%=      5-min Rain = 0
KHA1 112140Z 17009G14KT 36/11 A2997 RMK A01 T03590114  RH  024%=      5-min Rain = 0
KHA1 112145Z 16006KT 36/11 A2997 RMK A01 T03570113  RH  024%=      5-min Rain = 0
KHA1 112150Z 17006KT 36/11 A2997 RMK A01 T03580113  RH  024%=      5-min Rain = 0
KHA1 112155Z 16008G13KT 36/12 A2996 RMK A01 T03600115  RH  024%=      5-min Rain = 0
KHA1 112200Z 17008G13KT 36/11 A2996 RMK A01 T03610112  RH  023%=      5-min Rain = 0
KHA1 112205Z 15009G15KT 36/12 A2996 RMK A01 T03570116  RH  024%=      5-min Rain = 0
KHA1 112210Z 16009KT 36/11 A2996 RMK A01 T03560113  RH  024%=      5-min Rain = 0
KHA1 112215Z 17008KT 36/11 A2995 RMK A01 T03590108  RH  023%=      5-min Rain = 0
KHA1 112220Z 17008KT 36/12 A2995 RMK A01 T03610118  RH  024%=      5-min Rain = 0
KHA1 112225Z 17008KT 36/11 A2995 RMK A01 T03620112  RH  023%=      5-min Rain = 0
KHA1 112230Z 14007KT 36/11 A2995 RMK A01 T03620113  RH  023%=      5-min Rain = 0
KHA1 112235Z 18008KT 36/11 A2995 RMK A01 T03620108  RH  022%=      5-min Rain = 0
KHA1 112240Z 19010KT 37/11 A2994 RMK A01 T03660105  RH  021%=      5-min Rain = 0
KHA1 112245Z 19010KT 37/11 A2994 RMK A01 T03670113  RH  022%=      5-min Rain = 0
KHA1 112250Z 15007KT 36/12 A2994 RMK A01 T03630121  RH  024%=      5-min Rain = 0
KHA1 112255Z 14007G12KT 36/12 A2994 RMK A01 T03600118  RH  024%=      5-min Rain = 0
KHA1 112300Z 14008G13KT 36/12 A2994 RMK A01 T03580118  RH  024%=      5-min Rain = 0
KHA1 112305Z 18010KT 36/11 A2994 RMK A01 T03610113  RH  023%=      5-min Rain = 0
KHA1 112310Z 18008G13KT 36/11 A2994 RMK A01 T03640112  RH  023%=      5-min Rain = 0
KHA1 112315Z 20008G13KT 37/11 A2993 RMK A01 T03680107  RH  021%=      5-min Rain = 0
KHA1 112320Z 16008KT 37/12 A2993 RMK A01 T03660122  RH  024%=      5-min Rain = 0
KHA1 112325Z 18009KT 36/12 A2993 RMK A01 T03620115  RH  023%=      5-min Rain = 0
KHA1 112330Z 19009KT 37/11 A2993 RMK A01 T03660109  RH  022%=      5-min Rain = 0
KHA1 112335Z 20007KT 36/11 A2993 RMK A01 T03640108  RH  022%=      5-min Rain = 0
KHA1 112340Z 19008G14KT 37/12 A2993 RMK A01 T03680117  RH  023%=      5-min Rain = 0
KHA1 112345Z 18007KT 37/12 A2993 RMK A01 T03650115  RH  023%=      5-min Rain = 0
KHA1 112350Z 17008KT 36/12 A2993 RMK A01 T03620122  RH  025%=      5-min Rain = 0
KHA1 112355Z 18008KT 36/13 A2993 RMK A01 T03610126  RH  025%=      5-min Rain = 0
KHA1 120000Z 17007KT 36/12 A2993 RMK A01 T03600124  RH  025%=      5-min Rain = 0
KHA1 120005Z 18008KT 36/12 A2993 RMK A01 T03620122  RH  025%=      5-min Rain = 0
KHA1 120010Z 16008G13KT 36/12 A2993 RMK A01 T03600122  RH  025%=      5-min Rain = 0
KHA1 120015Z 16008G14KT 36/12 A2993 RMK A01 T03570122  RH  025%=      5-min Rain = 0
KHA1 120020Z 16009KT 36/12 A2993 RMK A01 T03550122  RH  026%=      5-min Rain = 0
KHA1 120025Z 16008KT 35/13 A2994 RMK A01 T03530125  RH  026%=      5-min Rain = 0
KHA1 120030Z 16008G13KT 35/12 A2994 RMK A01 T03530124  RH  026%=      5-min Rain = 0
KHA1 120035Z 15008KT 35/12 A2994 RMK A01 T03510123  RH  026%=      5-min Rain = 0
KHA1 120040Z 15008KT 35/12 A2994 RMK A01 T03510124  RH  026%=      5-min Rain = 0
KHA1 120045Z 14007KT 35/13 A2994 RMK A01 T03510128  RH  027%=      5-min Rain = 0
KHA1 120050Z 12007KT 35/14 A2994 RMK A01 T03480135  RH  029%=      5-min Rain = 0
KHA1 120055Z 12011KT 34/14 A2994 RMK A01 T03440135  RH  030%=      5-min Rain = 0
KHA1 120100Z 12011KT 34/14 A2994 RMK A01 T03420136  RH  030%=      5-min Rain = 0
KHA1 120105Z 12010KT 34/14 A2995 RMK A01 T03400137  RH  031%=      5-min Rain = 0
KHA1 120110Z 12010G15KT 34/14 A2995 RMK A01 T03380139  RH  031%=      5-min Rain = 0
KHA1 120115Z 12011KT 34/14 A2995 RMK A01 T03360140  RH  032%=      5-min Rain = 0
KHA1 120120Z 12012KT 33/14 A2995 RMK A01 T03340141  RH  033%=      5-min Rain = 0
KHA1 120125Z 12010KT 33/14 A2995 RMK A01 T03320142  RH  033%=      5-min Rain = 0
KHA1 120130Z 12010G15KT 33/14 A2995 RMK A01 T03300143  RH  034%=      5-min Rain = 0
KHA1 120135Z 12011KT 33/14 A2995 RMK A01 T03280144  RH  034%=      5-min Rain = 0
KHA1 120140Z 12011KT 33/15 A2996 RMK A01 T03270145  RH  035%=      5-min Rain = 0
KHA1 120145Z 12011KT 33/15 A2996 RMK A01 T03260147  RH  036%=      5-min Rain = 0
KHA1 120150Z 12011G17KT 32/15 A2996 RMK A01 T03240148  RH  036%=      5-min Rain = 0
KHA1 120155Z 12010KT 32/15 A2996 RMK A01 T03230149  RH  036%=      5-min Rain = 0
KHA1 120200Z 12009G14KT 32/15 A2997 RMK A01 T03200151  RH  037%=      5-min Rain = 0
KHA1 120205Z 12010KT 32/15 A2997 RMK A01 T03190151  RH  038%=      5-min Rain = 0
KHA1 120210Z 12010G15KT 32/15 A2997 RMK A01 T03180152  RH  038%=      5-min Rain = 0
KHA1 120215Z 12011KT 32/15 A2998 RMK A01 T03170152  RH  039%=      5-min Rain = 0
KHA1 120220Z 12012G17KT 32/15 A2998 RMK A01 T03160151  RH  038%=      5-min Rain = 0
KHA1 120225Z 12010G15KT 32/15 A2998 RMK A01 T03150151  RH  039%=      5-min Rain = 0
KHA1 120230Z 13010KT 31/15 A2998 RMK A01 T03140152  RH  039%=      5-min Rain = 0
KHA1 120235Z 12010KT 31/15 A2998 RMK A01 T03130152  RH  039%=      5-min Rain = 0
KHA1 120240Z 13009KT 31/15 A2998 RMK A01 T03130152  RH  040%=      5-min Rain = 0
KHA1 120245Z 12009KT 31/15 A2999 RMK A01 T03130152  RH  040%=      5-min Rain = 0
KHA1 120250Z 12009KT 31/15 A2999 RMK A01 T03120153  RH  040%=      5-min Rain = 0
KHA1 120255Z 12009KT 31/15 A2999 RMK A01 T03120154  RH  040%=      5-min Rain = 0
KHA1 120300Z 13009G15KT 31/15 A2999 RMK A01 T03110153  RH  040%=      5-min Rain = 0
KHA1 120305Z 13011G16KT 31/15 A2999 RMK A01 T03120152  RH  040%=      5-min Rain = 0
KHA1 120310Z 13011G16KT 31/15 A2999 RMK A01 T03110152  RH  040%=      5-min Rain = 0
KHA1 120315Z 13011KT 31/15 A30 RMK A01 T03100152  RH  040%=      5-min Rain = 0
KHA1 120320Z 13009G14KT 31/15 A30 RMK A01 T03090152  RH  040%=      5-min Rain = 0
KHA1 120325Z 13009KT 31/15 A30 RMK A01 T03080152  RH  041%=      5-min Rain = 0
KHA1 120330Z 13009KT 31/15 A30 RMK A01 T03070152  RH  041%=      5-min Rain = 0
KHA1 120335Z 13009KT 31/15 A30 RMK A01 T03060152  RH  041%=      5-min Rain = 0
KHA1 120340Z 13009KT 31/15 A30 RMK A01 T03060151  RH  041%=      5-min Rain = 0
KHA1 120345Z 13008KT 31/15 A3001 RMK A01 T03060151  RH  041%=      5-min Rain = 0
KHA1 120350Z 13008KT 30/15 A3001 RMK A01 T03040152  RH  042%=      5-min Rain = 0
KHA1 120355Z 13008KT 30/15 A3002 RMK A01 T03040152  RH  042%=      5-min Rain = 0
KHA1 120400Z 13008G14KT 30/15 A3002 RMK A01 T03030152  RH  042%=      5-min Rain = 0
KHA1 120405Z 13009KT 30/15 A3002 RMK A01 T03020152  RH  042%=      5-min Rain = 0
KHA1 120410Z 13009KT 30/15 A3002 RMK A01 T03020153  RH  043%=      5-min Rain = 0
KHA1 120415Z 13009KT 30/15 A3002 RMK A01 T03000154  RH  043%=      5-min Rain = 0
KHA1 120420Z 13011G20KT 30/15 A3002 RMK A01 T02990153  RH  043%=      5-min Rain = 0
KHA1 120425Z 13013KT 30/15 A3002 RMK A01 T02980153  RH  043%=      5-min Rain = 0
KHA1 120430Z 12011G16KT 30/16 A3002 RMK A01 T02970155  RH  044%=      5-min Rain = 0
KHA1 120435Z 12011G16KT 30/16 A3002 RMK A01 T02950157  RH  045%=      5-min Rain = 0
KHA1 120440Z 13009G15KT 29/16 A3002 RMK A01 T02930159  RH  046%=      5-min Rain = 0
KHA1 120445Z 13008KT 29/16 A3002 RMK A01 T02910161  RH  048%=      5-min Rain = 0
KHA1 120450Z 13009G15KT 29/16 A3002 RMK A01 T02910162  RH  048%=      5-min Rain = 0
KHA1 120455Z 13009G14KT 29/16 A3002 RMK A01 T02910163  RH  048%=      5-min Rain = 0

Page generated in 0.0126 seconds.